Time;durP1;ratioP1;P1;durP2;ratioP2;P2;SDS_P1;SDS_P2;PMS_P1;PMS_P2;Temp;Humidity;BMP_temperature;BMP_pressure;BME280_temperature;BME280_humidity;BME280_pressure;Samples;Min_cycle;Max_cycle;Signal;HPM_P1;HPM_P2
2024/02/12 00:00:31;;;;;;;3.92;2.35;;;;;;;;;;5055092;28;20456;-62
2024/02/12 00:02:57;;;;;;;4.03;1.88;;;;;;;;;;5055324;28;20049;-62
2024/02/12 00:05:24;;;;;;;3.63;1.73;;;;;;;;;;5055235;28;20056;-62
2024/02/12 00:07:50;;;;;;;2.95;1.80;;;;;;;;;;5055133;28;20082;-62
2024/02/12 00:10:17;;;;;;;4.43;1.90;;;;;;;;;;5054670;28;20052;-62
2024/02/12 00:12:46;;;;;;;3.28;1.90;;;;;;;;;;5055064;28;20068;-63
2024/02/12 00:15:13;;;;;;;4.53;2.40;;;;;;;;;;5054734;28;20056;-62
2024/02/12 00:17:40;;;;;;;6.45;2.30;;;;;;;;;;5054891;28;20053;-62
2024/02/12 00:20:10;;;;;;;5.22;2.17;;;;;;;;;;5054445;28;20057;-62
2024/02/12 00:22:39;;;;;;;3.50;2.30;;;;;;;;;;5055004;28;20045;-62
2024/02/12 00:25:07;;;;;;;5.60;2.28;;;;;;;;;;5054693;28;20140;-62
2024/02/12 00:27:34;;;;;;;4.43;2.40;;;;;;;;;;5054773;28;20060;-62
2024/02/12 00:30:02;;;;;;;4.22;2.28;;;;;;;;;;5054203;28;20080;-62
2024/02/12 00:32:29;;;;;;;4.03;2.20;;;;;;;;;;5054695;28;20542;-63
2024/02/12 00:34:56;;;;;;;4.85;2.30;;;;;;;;;;5054025;28;20057;-62
2024/02/12 00:37:25;;;;;;;3.08;2.20;;;;;;;;;;5054462;28;20052;-62
2024/02/12 00:39:52;;;;;;;5.03;2.58;;;;;;;;;;5053988;28;20415;-62
2024/02/12 00:42:18;;;;;;;4.05;2.28;;;;;;;;;;5054342;28;20045;-62
2024/02/12 00:44:46;;;;;;;4.78;2.58;;;;;;;;;;5053924;28;20056;-63
2024/02/12 00:47:14;;;;;;;3.95;2.58;;;;;;;;;;5054278;28;20059;-63
2024/02/12 00:49:43;;;;;;;3.95;2.45;;;;;;;;;;5054097;28;20072;-62
2024/02/12 00:52:10;;;;;;;7.23;2.80;;;;;;;;;;5053957;28;20081;-62
2024/02/12 00:54:40;;;;;;;6.55;3.03;;;;;;;;;;5053948;28;20471;-62
2024/02/12 00:57:07;;;;;;;4.45;2.83;;;;;;;;;;5054319;28;20053;-62
2024/02/12 00:59:38;;;;;;;5.72;3.83;;;;;;;;;;5054819;28;20056;-63
2024/02/12 01:02:05;;;;;;;5.50;3.40;;;;;;;;;;5054378;28;20052;-63
2024/02/12 01:04:34;;;;;;;6.38;3.85;;;;;;;;;;5053683;28;20439;-62
2024/02/12 01:07:01;;;;;;;6.10;3.95;;;;;;;;;;5068900;28;20424;-62
2024/02/12 01:09:27;;;;;;;6.07;3.80;;;;;;;;;;5073618;28;20056;-62
2024/02/12 01:11:55;;;;;;;5.25;3.83;;;;;;;;;;5073519;28;20060;-62
2024/02/12 01:14:23;;;;;;;7.07;3.75;;;;;;;;;;5066292;28;20068;-63
2024/02/12 01:16:50;;;;;;;6.68;4.03;;;;;;;;;;5059888;28;20060;-61
2024/02/12 01:19:17;;;;;;;6.22;4.03;;;;;;;;;;5053288;28;20492;-62
2024/02/12 01:21:45;;;;;;;5.78;4.00;;;;;;;;;;5053597;28;20057;-61
2024/02/12 01:24:15;;;;;;;8.20;4.80;;;;;;;;;;5065638;28;20514;-61
2024/02/12 01:26:42;;;;;;;6.43;4.53;;;;;;;;;;5073262;28;20414;-61
2024/02/12 01:29:08;;;;;;;4.88;4.07;;;;;;;;;;5069869;28;20096;-61
2024/02/12 01:31:36;;;;;;;5.28;4.20;;;;;;;;;;5070985;28;20408;-62
2024/02/12 01:34:04;;;;;;;6.45;4.40;;;;;;;;;;5073327;28;20053;-62
2024/02/12 01:36:32;;;;;;;6.03;4.32;;;;;;;;;;5073347;28;20075;-62
2024/02/12 01:39:00;;;;;;;7.28;4.88;;;;;;;;;;5073054;28;20055;-62
2024/02/12 01:41:27;;;;;;;10.70;6.18;;;;;;;;;;5072775;28;20060;-62
2024/02/12 01:43:53;;;;;;;10.43;6.97;;;;;;;;;;5062105;28;20045;-62
2024/02/12 01:46:20;;;;;;;10.10;8.13;;;;;;;;;;5052794;28;20052;-62
2024/02/12 01:48:48;;;;;;;10.07;7.22;;;;;;;;;;5053196;28;20056;-63
2024/02/12 01:51:15;;;;;;;11.00;7.68;;;;;;;;;;5053069;28;20056;-62
2024/02/12 01:53:43;;;;;;;13.18;8.68;;;;;;;;;;5052397;28;20044;-62
2024/02/12 01:56:11;;;;;;;12.38;8.55;;;;;;;;;;5052860;28;20052;-62
2024/02/12 01:58:39;;;;;;;13.43;9.02;;;;;;;;;;5053547;28;20060;-62
2024/02/12 02:01:07;;;;;;;13.55;9.30;;;;;;;;;;5052880;28;20480;-62
2024/02/12 02:03:33;;;;;;;12.63;9.20;;;;;;;;;;5052988;28;20056;-63
2024/02/12 02:06:00;;;;;;;13.07;9.50;;;;;;;;;;5050263;28;20053;-63
2024/02/12 02:08:36;;;;;;;13.05;10.00;;;;;;;;;;5052676;28;20059;-62
2024/02/12 02:11:04;;;;;;;13.30;10.95;;;;;;;;;;5052139;28;20061;-62
2024/02/12 02:13:33;;;;;;;17.27;13.27;;;;;;;;;;5052155;28;20059;-62
2024/02/12 02:16:00;;;;;;;15.57;12.52;;;;;;;;;;5052795;28;20060;-62
2024/02/12 02:18:27;;;;;;;15.90;12.82;;;;;;;;;;5052754;28;20522;-62
2024/02/12 02:20:54;;;;;;;17.58;13.52;;;;;;;;;;5052646;28;20052;-62
2024/02/12 02:23:21;;;;;;;18.55;13.35;;;;;;;;;;5052378;28;20053;-62
2024/02/12 02:25:49;;;;;;;19.00;14.20;;;;;;;;;;5052646;28;20510;-62
2024/02/12 02:28:16;;;;;;;17.60;13.85;;;;;;;;;;5052456;28;20053;-62
2024/02/12 02:30:43;;;;;;;19.13;14.05;;;;;;;;;;5053188;28;20052;-62
2024/02/12 02:33:10;;;;;;;17.48;14.13;;;;;;;;;;5052571;28;20041;-62
2024/02/12 02:35:37;;;;;;;18.48;14.95;;;;;;;;;;5052428;28;20056;-62
2024/02/12 02:38:05;;;;;;;20.27;14.65;;;;;;;;;;5052158;28;20053;-62
2024/02/12 02:40:32;;;;;;;20.70;15.95;;;;;;;;;;5052476;28;20057;-62
2024/02/12 02:43:00;;;;;;;19.67;15.57;;;;;;;;;;5052196;28;20048;-62
2024/02/12 02:45:27;;;;;;;18.88;15.35;;;;;;;;;;5063707;28;20061;-62
2024/02/12 02:47:55;;;;;;;19.33;14.90;;;;;;;;;;5071981;28;20057;-62
2024/02/12 02:50:22;;;;;;;22.40;16.10;;;;;;;;;;5072129;28;20059;-62
2024/02/12 02:52:49;;;;;;;21.27;17.30;;;;;;;;;;5070460;28;20048;-62
2024/02/12 02:55:17;;;;;;;22.52;17.70;;;;;;;;;;5052163;28;20053;-62
2024/02/12 02:57:44;;;;;;;23.65;17.98;;;;;;;;;;5052108;28;20064;-62
2024/02/12 03:00:13;;;;;;;21.33;17.48;;;;;;;;;;5052463;28;20060;-62
2024/02/12 03:02:41;;;;;;;24.65;17.40;;;;;;;;;;5052294;28;20059;-62
2024/02/12 03:05:08;;;;;;;23.20;16.80;;;;;;;;;;5052173;28;20056;-63
2024/02/12 03:07:36;;;;;;;19.85;16.30;;;;;;;;;;5052114;28;20484;-62
2024/02/12 03:10:03;;;;;;;22.10;18.05;;;;;;;;;;5052122;28;20053;-62
2024/02/12 03:12:30;;;;;;;21.38;17.52;;;;;;;;;;5052338;28;20058;-62
2024/02/12 03:14:59;;;;;;;21.02;16.75;;;;;;;;;;5053271;28;20060;-63
2024/02/12 03:17:27;;;;;;;20.75;17.17;;;;;;;;;;5052231;28;20057;-62
2024/02/12 03:19:54;;;;;;;21.52;17.20;;;;;;;;;;5051870;28;20049;-62
2024/02/12 03:22:21;;;;;;;22.35;16.92;;;;;;;;;;5051753;28;20435;-62
2024/02/12 03:24:48;;;;;;;22.83;18.30;;;;;;;;;;5051742;28;20411;-62
2024/02/12 03:27:14;;;;;;;20.85;17.35;;;;;;;;;;5051747;28;20064;-62
2024/02/12 03:29:42;;;;;;;23.27;18.00;;;;;;;;;;5051377;28;20053;-63
2024/02/12 03:32:09;;;;;;;23.88;18.75;;;;;;;;;;5068376;28;20045;-62
2024/02/12 03:34:37;;;;;;;26.27;20.90;;;;;;;;;;5071423;28;20052;-62
2024/02/12 03:37:04;;;;;;;28.17;21.13;;;;;;;;;;5071872;28;20057;-62
2024/02/12 03:39:30;;;;;;;28.33;22.15;;;;;;;;;;5071464;28;20052;-62
2024/02/12 03:41:57;;;;;;;30.00;21.88;;;;;;;;;;5071928;28;20048;-62
2024/02/12 03:44:24;;;;;;;25.20;20.60;;;;;;;;;;5071447;28;20061;-62
2024/02/12 03:46:52;;;;;;;25.38;20.10;;;;;;;;;;5054758;28;20053;-63
2024/02/12 04:00:22;;;;;;;;;;;;;;;;;;5061368;28;20383;-62
2024/02/12 04:02:49;;;;;;;23.92;19.17;;;;;;;;;;5063528;28;19920;-62
2024/02/12 04:05:17;;;;;;;22.90;18.55;;;;;;;;;;5074943;28;20044;-62
2024/02/12 04:07:45;;;;;;;26.42;19.95;;;;;;;;;;5075160;28;20063;-63
2024/02/12 04:10:12;;;;;;;23.77;19.42;;;;;;;;;;5074741;28;20052;-62
2024/02/12 04:12:39;;;;;;;26.45;21.30;;;;;;;;;;5074727;28;20135;-63
2024/02/12 04:15:11;;;;;;;27.45;22.30;;;;;;;;;;5074640;28;20060;-62
2024/02/12 04:17:38;;;;;;;25.92;21.52;;;;;;;;;;5059666;28;20056;-62
2024/02/12 04:20:05;;;;;;;28.73;21.45;;;;;;;;;;5054799;28;20057;-63
2024/02/12 04:22:33;;;;;;;27.45;21.75;;;;;;;;;;5054649;28;20061;-62
2024/02/12 04:25:02;;;;;;;27.02;22.23;;;;;;;;;;5054727;28;20056;-63
2024/02/12 04:27:29;;;;;;;27.67;21.80;;;;;;;;;;5054736;28;20057;-62
2024/02/12 04:29:56;;;;;;;27.25;21.90;;;;;;;;;;5054060;28;20056;-62
2024/02/12 04:32:24;;;;;;;30.33;21.42;;;;;;;;;;5053936;28;20052;-62
2024/02/12 04:34:50;;;;;;;26.63;20.77;;;;;;;;;;5054213;28;20049;-62
2024/02/12 04:37:17;;;;;;;26.27;20.67;;;;;;;;;;5054139;28;20064;-62
2024/02/12 04:39:44;;;;;;;29.10;22.25;;;;;;;;;;5053848;28;20088;-62
2024/02/12 04:42:12;;;;;;;27.95;20.35;;;;;;;;;;5054533;28;20472;-63
2024/02/12 04:44:40;;;;;;;26.33;20.20;;;;;;;;;;5053824;28;20152;-62
2024/02/12 04:47:09;;;;;;;29.80;20.30;;;;;;;;;;5055296;28;20063;-62
2024/02/12 04:49:37;;;;;;;26.33;19.80;;;;;;;;;;5054420;28;20056;-62
2024/02/12 04:52:04;;;;;;;27.08;19.35;;;;;;;;;;5054464;28;20814;-62
2024/02/12 04:54:30;;;;;;;27.77;21.63;;;;;;;;;;5053957;28;20049;-63
2024/02/12 04:56:57;;;;;;;26.85;20.38;;;;;;;;;;5054159;28;20057;-62
2024/02/12 04:59:25;;;;;;;27.42;20.67;;;;;;;;;;5053727;28;20049;-61
2024/02/12 05:01:54;;;;;;;26.60;19.67;;;;;;;;;;5054845;28;20068;-61
2024/02/12 05:04:21;;;;;;;28.83;20.47;;;;;;;;;;5054061;28;20060;-61
2024/02/12 05:06:48;;;;;;;29.48;20.42;;;;;;;;;;5054083;28;20494;-62
2024/02/12 05:09:15;;;;;;;24.88;18.90;;;;;;;;;;5053699;28;20049;-62
2024/02/12 05:11:42;;;;;;;27.63;19.10;;;;;;;;;;5053872;28;20057;-62
2024/02/12 05:14:08;;;;;;;27.13;19.85;;;;;;;;;;5053364;28;20060;-62
2024/02/12 05:16:37;;;;;;;25.10;18.25;;;;;;;;;;5054000;28;20420;-62
2024/02/12 05:24:33;;;;;;;21.35;16.00;;;;;;;;;;5056153;28;20503;-62
2024/02/12 05:27:01;;;;;;;21.20;14.52;;;;;;;;;;5072783;28;20056;-62
2024/02/12 05:29:28;;;;;;;18.55;13.77;;;;;;;;;;5073377;28;20058;-62
2024/02/12 05:31:56;;;;;;;19.75;13.43;;;;;;;;;;5069370;28;20045;-62
2024/02/12 05:34:25;;;;;;;18.85;13.43;;;;;;;;;;5071869;28;20057;-62
2024/02/12 05:36:53;;;;;;;19.10;14.63;;;;;;;;;;5057001;28;20055;-61
2024/02/12 05:39:21;;;;;;;21.27;14.60;;;;;;;;;;5053558;28;20471;-62
2024/02/12 05:41:48;;;;;;;19.55;14.48;;;;;;;;;;5053009;28;20068;-62
2024/02/12 05:44:14;;;;;;;20.00;15.15;;;;;;;;;;5052835;28;20144;-62
2024/02/12 05:46:41;;;;;;;20.20;14.43;;;;;;;;;;5052438;28;20439;-62
2024/02/12 05:49:14;;;;;;;19.48;14.68;;;;;;;;;;5053476;28;20057;-62
2024/02/12 05:51:42;;;;;;;19.77;14.10;;;;;;;;;;5052955;28;20049;-62
2024/02/12 05:54:08;;;;;;;20.65;15.10;;;;;;;;;;5052194;28;20053;-62
2024/02/12 05:56:39;;;;;;;20.50;15.00;;;;;;;;;;5052415;28;20059;-62
2024/02/12 05:59:06;;;;;;;20.58;14.00;;;;;;;;;;5052316;28;20053;-62
2024/02/12 06:01:33;;;;;;;18.55;13.30;;;;;;;;;;5052556;28;20064;-62
2024/02/12 06:04:00;;;;;;;18.35;13.90;;;;;;;;;;5063299;28;20063;-62
2024/02/12 06:06:28;;;;;;;19.55;14.27;;;;;;;;;;5072578;28;20056;-62
2024/02/12 06:08:54;;;;;;;18.10;14.25;;;;;;;;;;5072500;28;20057;-61
2024/02/12 06:11:21;;;;;;;22.25;15.07;;;;;;;;;;5072509;28;20419;-61
2024/02/12 06:13:48;;;;;;;19.67;15.77;;;;;;;;;;5072804;28;20067;-61
2024/02/12 06:16:15;;;;;;;20.67;15.07;;;;;;;;;;5054969;28;20048;-61
2024/02/12 06:18:42;;;;;;;19.50;14.30;;;;;;;;;;5059510;28;20051;-62
2024/02/12 06:21:08;;;;;;;24.48;15.45;;;;;;;;;;5072601;28;20487;-61
2024/02/12 06:23:37;;;;;;;24.77;16.25;;;;;;;;;;5072253;28;20067;-61
2024/02/12 06:26:03;;;;;;;22.80;15.73;;;;;;;;;;5072350;28;20380;-61
2024/02/12 06:28:30;;;;;;;22.42;15.70;;;;;;;;;;5072500;28;20475;-62
2024/02/12 06:30:57;;;;;;;22.08;16.83;;;;;;;;;;5058006;28;20498;-61
2024/02/12 06:33:24;;;;;;;23.35;16.98;;;;;;;;;;5053013;28;20056;-62
2024/02/12 06:35:51;;;;;;;24.45;17.10;;;;;;;;;;5058712;28;20049;-61
2024/02/12 06:38:18;;;;;;;25.10;18.65;;;;;;;;;;5052078;28;20048;-62
2024/02/12 06:40:48;;;;;;;26.88;19.02;;;;;;;;;;5052492;28;20408;-61
2024/02/12 06:43:15;;;;;;;30.42;19.45;;;;;;;;;;5056026;28;20052;-62
2024/02/12 06:45:42;;;;;;;27.63;20.38;;;;;;;;;;5052620;28;20053;-61
2024/02/12 06:48:09;;;;;;;33.15;22.83;;;;;;;;;;5053798;28;20063;-61
2024/02/12 06:50:36;;;;;;;31.30;21.85;;;;;;;;;;5052090;28;20052;-61
2024/02/12 06:53:03;;;;;;;34.28;24.17;;;;;;;;;;5055010;28;20060;-61
2024/02/12 06:55:31;;;;;;;34.10;23.50;;;;;;;;;;5067788;28;20052;-61
2024/02/12 06:57:59;;;;;;;34.65;23.30;;;;;;;;;;5061988;28;20059;-61
2024/02/12 07:00:26;;;;;;;31.92;22.20;;;;;;;;;;5054883;28;20068;-61
2024/02/12 07:02:54;;;;;;;32.35;23.02;;;;;;;;;;5054006;28;20059;-61
2024/02/12 07:05:20;;;;;;;34.90;23.58;;;;;;;;;;5051981;28;20044;-61
2024/02/12 07:07:47;;;;;;;34.20;23.20;;;;;;;;;;5052458;28;20060;-62
2024/02/12 07:10:14;;;;;;;37.42;25.40;;;;;;;;;;5051686;28;20068;-62
2024/02/12 07:12:41;;;;;;;30.63;22.00;;;;;;;;;;5055122;28;20049;-62
2024/02/12 07:15:10;;;;;;;31.42;21.95;;;;;;;;;;5053248;28;20045;-62
2024/02/12 07:17:37;;;;;;;33.00;22.70;;;;;;;;;;5056282;28;20049;-62
2024/02/12 07:20:04;;;;;;;30.92;22.02;;;;;;;;;;5054570;28;20060;-62
2024/02/12 07:22:31;;;;;;;34.90;22.55;;;;;;;;;;5052286;28;20139;-62
2024/02/12 07:24:59;;;;;;;32.20;22.30;;;;;;;;;;5052895;28;20060;-62
2024/02/12 07:27:26;;;;;;;31.25;22.15;;;;;;;;;;5054674;28;20982;-61
2024/02/12 07:29:53;;;;;;;32.88;24.48;;;;;;;;;;5066008;28;20055;-61
2024/02/12 07:32:21;;;;;;;30.70;22.00;;;;;;;;;;5061384;28;20053;-61
2024/02/12 07:34:50;;;;;;;31.48;22.00;;;;;;;;;;5055264;28;20059;-61
2024/02/12 07:37:16;;;;;;;30.25;23.40;;;;;;;;;;5062929;28;20411;-61
2024/02/12 07:39:43;;;;;;;33.88;22.77;;;;;;;;;;5060075;28;20061;-61
2024/02/12 07:42:10;;;;;;;34.35;22.58;;;;;;;;;;5069138;28;20506;-60
2024/02/12 07:44:37;;;;;;;33.83;23.80;;;;;;;;;;5073419;28;20055;-61
2024/02/12 07:47:05;;;;;;;31.00;22.17;;;;;;;;;;5063331;28;20060;-60
2024/02/12 07:49:34;;;;;;;35.03;25.00;;;;;;;;;;5067199;28;20052;-62
2024/02/12 07:52:01;;;;;;;39.25;24.92;;;;;;;;;;5074678;28;20056;-61
2024/02/12 07:54:28;;;;;;;32.90;24.13;;;;;;;;;;5064023;28;20045;-61
2024/02/12 07:56:55;;;;;;;32.53;23.65;;;;;;;;;;5055225;28;20506;-61
2024/02/12 07:59:22;;;;;;;39.00;24.70;;;;;;;;;;5065993;28;20406;-60
2024/02/12 08:01:49;;;;;;;34.17;24.08;;;;;;;;;;5057328;28;20057;-60
2024/02/12 08:04:15;;;;;;;32.90;22.60;;;;;;;;;;5064211;28;20056;-60
2024/02/12 08:06:43;;;;;;;32.50;23.65;;;;;;;;;;5059471;28;20504;-60
2024/02/12 08:09:11;;;;;;;32.10;23.02;;;;;;;;;;5066345;28;20053;-60
2024/02/12 08:11:39;;;;;;;33.60;22.20;;;;;;;;;;5075254;28;20487;-60
2024/02/12 08:14:11;;;;;;;28.38;21.25;;;;;;;;;;5059362;28;20049;-60
2024/02/12 08:16:38;;;;;;;27.67;21.02;;;;;;;;;;5060682;28;20048;-60
2024/02/12 08:19:04;;;;;;;28.95;21.23;;;;;;;;;;5058983;28;20048;-60
2024/02/12 08:21:31;;;;;;;27.13;19.58;;;;;;;;;;5074874;28;20063;-60
2024/02/12 08:24:01;;;;;;;26.35;20.60;;;;;;;;;;5066613;28;20064;-60
2024/02/12 08:26:27;;;;;;;27.88;20.77;;;;;;;;;;5061180;28;20060;-61
2024/02/12 08:28:54;;;;;;;26.42;20.05;;;;;;;;;;5071299;28;20080;-61
2024/02/12 08:31:21;;;;;;;27.67;20.85;;;;;;;;;;5057063;28;20060;-61
2024/02/12 08:33:48;;;;;;;28.67;21.42;;;;;;;;;;5066574;28;20064;-61
2024/02/12 08:36:16;;;;;;;27.42;21.10;;;;;;;;;;5068972;28;20052;-61
2024/02/12 08:38:43;;;;;;;30.75;21.65;;;;;;;;;;5064070;28;20045;-61
2024/02/12 08:41:20;;;;;;;27.48;21.63;;;;;;;;;;5073319;28;20053;-60
2024/02/12 08:43:47;;;;;;;27.35;21.42;;;;;;;;;;5059069;28;20053;-61
2024/02/12 08:46:14;;;;;;;28.90;20.95;;;;;;;;;;5060249;28;20060;-61
2024/02/12 08:48:41;;;;;;;27.10;20.13;;;;;;;;;;5054326;28;20053;-61
2024/02/12 08:51:08;;;;;;;29.60;21.02;;;;;;;;;;5056380;28;20056;-60
2024/02/12 08:53:43;;;;;;;29.25;20.98;;;;;;;;;;5061939;28;20055;-60
2024/02/12 08:56:10;;;;;;;41.03;20.17;;;;;;;;;;5060635;28;20045;-61
2024/02/12 08:58:40;;;;;;;29.33;21.83;;;;;;;;;;5054036;28;20057;-60
2024/02/12 09:01:09;;;;;;;26.27;18.98;;;;;;;;;;5055427;28;20441;-61
2024/02/12 09:03:36;;;;;;;;;;;;;;;;;;5054275;28;20049;-60
2024/02/12 09:06:04;;;;;;;28.05;20.15;;;;;;;;;;5053391;28;19920;-61
2024/02/12 09:08:32;;;;;;;25.00;18.55;;;;;;;;;;5053452;28;20156;-61
2024/02/12 09:10:59;;;;;;;26.15;18.10;;;;;;;;;;5068975;28;20072;-60
2024/02/12 09:13:25;;;;;;;27.73;20.30;;;;;;;;;;5068117;28;20056;-61
2024/02/12 09:15:54;;;;;;;24.83;19.30;;;;;;;;;;5060380;28;20044;-61
2024/02/12 09:18:21;;;;;;;27.98;19.27;;;;;;;;;;5064450;28;20052;-60
2024/02/12 09:20:48;;;;;;;26.83;18.27;;;;;;;;;;5056426;28;20067;-61
2024/02/12 09:23:15;;;;;;;27.13;18.95;;;;;;;;;;5072268;28;20060;-61
2024/02/12 09:25:42;;;;;;;24.92;17.85;;;;;;;;;;5071369;28;20055;-60
2024/02/12 09:28:09;;;;;;;23.98;17.90;;;;;;;;;;5054619;28;20057;-61
2024/02/12 09:30:36;;;;;;;24.60;17.95;;;;;;;;;;5058406;28;20056;-61
2024/02/12 09:33:06;;;;;;;27.15;17.80;;;;;;;;;;5058157;28;20116;-60
2024/02/12 09:35:35;;;;;;;25.67;18.55;;;;;;;;;;5060176;28;20057;-60
2024/02/12 09:38:03;;;;;;;26.58;18.73;;;;;;;;;;5064573;28;20045;-60
2024/02/12 09:40:33;;;;;;;26.10;19.27;;;;;;;;;;5057987;28;20047;-61
2024/02/12 09:43:01;;;;;;;25.30;18.77;;;;;;;;;;5063729;28;20056;-61
2024/02/12 09:45:29;;;;;;;23.95;18.02;;;;;;;;;;5066879;28;20055;-61
2024/02/12 09:47:56;;;;;;;26.50;18.70;;;;;;;;;;5060204;28;20500;-60
2024/02/12 09:50:25;;;;;;;27.73;18.85;;;;;;;;;;5057971;28;20049;-60
2024/02/12 09:52:52;;;;;;;27.20;19.60;;;;;;;;;;5071701;28;20045;-61
2024/02/12 09:55:21;;;;;;;25.70;18.50;;;;;;;;;;5053440;28;20053;-60
2024/02/12 09:57:48;;;;;;;26.02;19.52;;;;;;;;;;5058822;28;20057;-61
2024/02/12 10:00:15;;;;;;;27.67;18.88;;;;;;;;;;5058912;28;20059;-61
2024/02/12 10:02:42;;;;;;;27.17;20.20;;;;;;;;;;5068770;28;20044;-60
2024/02/12 10:05:10;;;;;;;26.88;19.88;;;;;;;;;;5073041;28;20049;-60
2024/02/12 10:07:39;;;;;;;26.42;18.55;;;;;;;;;;5071116;28;20053;-60
2024/02/12 10:10:07;;;;;;;27.02;18.88;;;;;;;;;;5052881;28;20056;-60
2024/02/12 10:12:36;;;;;;;27.58;18.65;;;;;;;;;;5053075;28;20123;-61
2024/02/12 10:15:03;;;;;;;25.55;17.90;;;;;;;;;;5052991;28;20052;-60
2024/02/12 10:17:31;;;;;;;25.08;18.25;;;;;;;;;;5053791;28;20049;-60
2024/02/12 10:19:58;;;;;;;21.90;16.40;;;;;;;;;;5052467;28;20056;-60
2024/02/12 10:22:25;;;;;;;24.40;17.80;;;;;;;;;;5052829;28;20057;-61
2024/02/12 10:24:53;;;;;;;23.42;17.80;;;;;;;;;;5062616;28;20048;-61
2024/02/12 10:27:21;;;;;;;26.17;18.93;;;;;;;;;;5059879;28;20414;-61
2024/02/12 10:29:56;;;;;;;27.50;19.00;;;;;;;;;;5054574;28;20492;-60
2024/02/12 10:32:23;;;;;;;26.45;20.05;;;;;;;;;;5059545;28;20491;-60
2024/02/12 10:34:50;;;;;;;25.55;19.42;;;;;;;;;;5054790;28;20419;-60
2024/02/12 10:37:18;;;;;;;25.05;18.17;;;;;;;;;;5064123;28;20079;-60
2024/02/12 10:39:46;;;;;;;27.20;18.65;;;;;;;;;;5071847;28;20059;-60
2024/02/12 10:42:16;;;;;;;27.80;18.92;;;;;;;;;;5052494;28;20064;-61
2024/02/12 10:44:43;;;;;;;20.65;16.50;;;;;;;;;;5058164;28;20064;-60
2024/02/12 10:47:11;;;;;;;26.52;18.45;;;;;;;;;;5052356;28;20380;-60
2024/02/12 10:49:40;;;;;;;25.65;18.05;;;;;;;;;;5060264;28;20395;-60
2024/02/12 10:52:09;;;;;;;25.50;17.90;;;;;;;;;;5055911;28;20076;-61
2024/02/12 10:54:36;;;;;;;26.40;19.10;;;;;;;;;;5077675;28;20048;-60
2024/02/12 10:57:04;;;;;;;22.80;17.63;;;;;;;;;;5092680;28;20048;-61
2024/02/12 10:59:33;;;;;;;18.63;13.50;;;;;;;;;;5087265;28;20392;-61
2024/02/12 11:02:07;;;;;;;15.90;12.65;;;;;;;;;;5057331;28;20053;-61
2024/02/12 11:04:36;;;;;;;18.67;12.90;;;;;;;;;;5060444;28;20511;-61
2024/02/12 11:07:09;;;;;;;19.15;12.93;;;;;;;;;;5063424;28;20052;-65
2024/02/12 11:09:36;;;;;;;19.83;13.10;;;;;;;;;;5060542;28;20049;-61
2024/02/12 11:12:03;;;;;;;20.02;14.05;;;;;;;;;;5062161;28;20044;-63
2024/02/12 11:14:34;;;;;;;17.70;12.73;;;;;;;;;;5061085;28;20049;-58
2024/02/12 11:17:01;;;;;;;18.20;12.65;;;;;;;;;;5064131;28;20056;-59
2024/02/12 11:19:28;;;;;;;19.17;13.32;;;;;;;;;;5063190;28;20487;-60
2024/02/12 11:21:57;;;;;;;14.88;12.10;;;;;;;;;;5064050;28;20052;-59
2024/02/12 11:24:24;;;;;;;14.85;12.10;;;;;;;;;;5062091;28;20067;-59
2024/02/12 11:26:52;;;;;;;17.20;12.25;;;;;;;;;;5063832;28;20052;-63
2024/02/12 11:29:19;;;;;;;15.05;11.57;;;;;;;;;;5065618;28;20127;-59
2024/02/12 11:31:47;;;;;;;14.07;11.48;;;;;;;;;;5066943;28;20059;-64
2024/02/12 11:34:16;;;;;;;17.25;12.18;;;;;;;;;;5064590;28;20056;-61
2024/02/12 11:36:43;;;;;;;15.88;11.60;;;;;;;;;;5064116;28;20047;-62
2024/02/12 11:39:10;;;;;;;17.02;12.10;;;;;;;;;;5062940;28;20052;-64
2024/02/12 11:41:37;;;;;;;13.55;10.38;;;;;;;;;;5063935;28;20411;-61
2024/02/12 11:44:05;;;;;;;16.17;10.38;;;;;;;;;;5063475;28;20521;-64
2024/02/12 11:46:32;;;;;;;13.60;9.95;;;;;;;;;;5063166;28;20079;-73
2024/02/12 11:49:06;;;;;;;13.88;9.77;;;;;;;;;;5065693;28;20639;-64
2024/02/12 11:51:34;;;;;;;13.45;9.90;;;;;;;;;;5071407;28;20048;-59
2024/02/12 11:54:01;;;;;;;14.25;9.90;;;;;;;;;;5063530;28;20052;-62
2024/02/12 11:56:28;;;;;;;14.02;10.75;;;;;;;;;;5062061;28;20056;-63
2024/02/12 11:58:55;;;;;;;13.18;9.63;;;;;;;;;;5058851;28;20061;-59
2024/02/12 12:01:22;;;;;;;13.68;9.85;;;;;;;;;;5054978;28;20423;-59
2024/02/12 12:03:49;;;;;;;13.50;9.93;;;;;;;;;;5055702;28;20052;-59
2024/02/12 12:06:18;;;;;;;13.05;9.13;;;;;;;;;;5065698;28;20388;-60
2024/02/12 12:08:48;;;;;;;11.98;9.23;;;;;;;;;;5053995;28;20053;-60
2024/02/12 12:11:15;;;;;;;;;;;;;;;;;;5056246;28;20045;-60
2024/02/12 12:13:42;;;;;;;11.55;8.45;;;;;;;;;;5068861;28;19929;-60
2024/02/12 12:16:10;;;;;;;9.65;6.30;;;;;;;;;;5063663;28;20061;-60
2024/02/12 12:18:38;;;;;;;7.88;6.70;;;;;;;;;;5058466;28;20507;-60
2024/02/12 12:21:07;;;;;;;11.07;6.68;;;;;;;;;;5065297;28;20068;-60
2024/02/12 12:23:38;;;;;;;6.55;5.65;;;;;;;;;;5069076;28;20071;-60
2024/02/12 12:26:07;;;;;;;7.55;5.47;;;;;;;;;;5055211;28;20049;-61
2024/02/12 12:28:36;;;;;;;8.80;6.10;;;;;;;;;;5053399;28;20060;-60
2024/02/12 12:31:04;;;;;;;10.13;6.22;;;;;;;;;;5058380;28;20052;-61
2024/02/12 12:33:31;;;;;;;7.80;5.57;;;;;;;;;;5068908;28;20051;-61
2024/02/12 12:35:58;;;;;;;9.00;6.82;;;;;;;;;;5060835;28;20096;-60
2024/02/12 12:38:25;;;;;;;7.82;6.93;;;;;;;;;;5062807;28;20068;-60
2024/02/12 12:40:54;;;;;;;7.72;6.00;;;;;;;;;;5057760;28;20058;-59
2024/02/12 12:43:20;;;;;;;9.57;6.88;;;;;;;;;;5059367;28;20057;-60
2024/02/12 12:45:47;;;;;;;8.88;7.10;;;;;;;;;;5010821;28;1236493;-60
2024/02/12 12:48:15;;;;;;;16.45;14.73;;;;;;;;;;5059750;28;20055;-60
2024/02/12 12:50:41;;;;;;;11.93;10.52;;;;;;;;;;5064115;28;20049;-60
2024/02/12 12:53:09;;;;;;;9.55;7.32;;;;;;;;;;5056107;28;20411;-59
2024/02/12 12:55:36;;;;;;;12.55;8.63;;;;;;;;;;5065094;28;20068;-62
2024/02/12 12:58:05;;;;;;;13.55;7.93;;;;;;;;;;5062625;28;20045;-59
2024/02/12 13:00:36;;;;;;;;;;;;;;;;;;5055550;28;20056;-59
2024/02/12 13:03:03;;;;;;;10.27;7.55;;;;;;;;;;5056236;28;19928;-61
2024/02/12 13:05:29;;;;;;;12.18;8.57;;;;;;;;;;5067970;28;20064;-60
2024/02/12 13:07:57;;;;;;;10.77;7.47;;;;;;;;;;5072760;28;20045;-61
2024/02/12 13:10:24;;;;;;;10.30;7.32;;;;;;;;;;5071932;28;20048;-60
2024/02/12 13:12:51;;;;;;;11.05;7.25;;;;;;;;;;5061708;28;20053;-61
2024/02/12 13:15:19;;;;;;;10.07;7.40;;;;;;;;;;5053943;28;20060;-61
2024/02/12 13:17:47;;;;;;;11.32;7.82;;;;;;;;;;5052004;28;20053;-61
2024/02/12 13:20:21;;;;;;;10.73;7.47;;;;;;;;;;5068355;28;20466;-61
2024/02/12 13:22:53;;;;;;;9.27;7.03;;;;;;;;;;5060707;28;20079;-61
2024/02/12 13:25:21;;;;;;;8.40;6.45;;;;;;;;;;5063895;28;20053;-60
2024/02/12 13:27:47;;;;;;;10.43;7.25;;;;;;;;;;5056570;28;20045;-62
2024/02/12 13:30:15;;;;;;;11.52;7.85;;;;;;;;;;5063923;28;20384;-61
2024/02/12 13:32:46;;;;;;;9.88;7.32;;;;;;;;;;5058606;28;20064;-60
2024/02/12 13:35:14;;;;;;;10.40;6.75;;;;;;;;;;5059636;28;20057;-60
2024/02/12 13:37:41;;;;;;;12.27;7.93;;;;;;;;;;5054046;28;20142;-60
2024/02/12 13:40:09;;;;;;;10.23;7.72;;;;;;;;;;5061370;28;20060;-60
2024/02/12 13:42:36;;;;;;;8.10;5.72;;;;;;;;;;5053567;28;20053;-59
2024/02/12 13:45:03;;;;;;;10.30;5.43;;;;;;;;;;5056959;28;20069;-61
2024/02/12 13:47:31;;;;;;;7.65;5.78;;;;;;;;;;5073352;28;20056;-60
2024/02/12 13:49:59;;;;;;;11.65;6.22;;;;;;;;;;5065065;28;20056;-60
2024/02/12 13:52:26;;;;;;;9.57;5.97;;;;;;;;;;5055482;28;20059;-61
2024/02/12 13:54:55;;;;;;;9.77;5.20;;;;;;;;;;5056931;28;20488;-60
2024/02/12 13:57:22;;;;;;;9.55;5.30;;;;;;;;;;5053910;28;20065;-60
2024/02/12 13:59:49;;;;;;;7.75;5.47;;;;;;;;;;5063144;28;20061;-60
2024/02/12 14:02:16;;;;;;;8.30;5.13;;;;;;;;;;5068626;28;20472;-59
2024/02/12 14:04:43;;;;;;;8.77;4.45;;;;;;;;;;5062174;28;20071;-60
2024/02/12 14:07:12;;;;;;;6.43;4.22;;;;;;;;;;5061950;28;20052;-60
2024/02/12 14:09:39;;;;;;;6.63;3.80;;;;;;;;;;5058601;28;20410;-60
2024/02/12 14:12:06;;;;;;;6.38;3.50;;;;;;;;;;5070375;28;20126;-61
2024/02/12 14:14:33;;;;;;;6.40;3.67;;;;;;;;;;5052782;28;20048;-60
2024/02/12 14:17:00;;;;;;;7.07;3.75;;;;;;;;;;5065716;28;20056;-60
2024/02/12 14:19:27;;;;;;;4.72;3.40;;;;;;;;;;5070524;28;20048;-60
2024/02/12 14:21:54;;;;;;;5.97;3.88;;;;;;;;;;5057794;28;20048;-60
2024/02/12 14:24:23;;;;;;;6.93;4.40;;;;;;;;;;5057260;28;20052;-61
2024/02/12 14:26:49;;;;;;;6.45;3.88;;;;;;;;;;5053378;28;20068;-61
2024/02/12 14:29:17;;;;;;;7.57;4.78;;;;;;;;;;5071149;28;20052;-61
2024/02/12 14:31:44;;;;;;;10.13;5.40;;;;;;;;;;5061482;28;20044;-60
2024/02/12 14:34:12;;;;;;;6.35;5.10;;;;;;;;;;5056332;28;20407;-60
2024/02/12 14:36:39;;;;;;;11.10;5.25;;;;;;;;;;5053827;28;20053;-60
2024/02/12 14:39:06;;;;;;;6.45;4.40;;;;;;;;;;5052284;28;20041;-59
2024/02/12 14:41:35;;;;;;;8.48;5.40;;;;;;;;;;5064412;28;20048;-60
2024/02/12 14:44:03;;;;;;;7.57;5.25;;;;;;;;;;5052246;28;20053;-59